sensor_id;sensor_type;location;lat;lon;timestamp;pressure;altitude;pressure_sealevel;temperature;humidity
59859;BME280;45734;53.648;9.566;2023-04-22T00:04:24;96208.94;;;-145.06;100.00
59859;BME280;45734;53.648;9.566;2023-04-22T00:09:24;96219.16;;;-145.06;100.00
59859;BME280;45734;53.648;9.566;2023-04-22T00:14:25;96213.03;;;-145.06;100.00
59859;BME280;45734;53.648;9.566;2023-04-22T00:19:25;96194.59;;;-145.06;99.86
59859;BME280;45734;53.648;9.566;2023-04-22T00:24:25;96180.28;;;-145.06;97.83
59859;BME280;45734;53.648;9.566;2023-04-22T00:29:26;96125.00;;;-145.06;94.98
59859;BME280;45734;53.648;9.566;2023-04-22T00:34:26;96125.00;;;-145.06;93.10
59859;BME280;45734;53.648;9.566;2023-04-22T00:39:26;96118.88;;;-145.06;93.77
59859;BME280;45734;53.648;9.566;2023-04-22T00:44:27;96141.38;;;-145.06;91.92
59859;BME280;45734;53.648;9.566;2023-04-22T00:49:27;96125.00;;;-145.06;91.18
59859;BME280;45734;53.648;9.566;2023-04-22T00:54:28;96120.91;;;-145.06;89.77
59859;BME280;45734;53.648;9.566;2023-04-22T00:59:28;96143.44;;;-145.06;90.38
59859;BME280;45734;53.648;9.566;2023-04-22T01:04:29;96135.25;;;-145.06;89.44
59859;BME280;45734;53.648;9.566;2023-04-22T01:09:29;96086.13;;;-145.06;88.31
59859;BME280;45734;53.648;9.566;2023-04-22T01:14:30;96135.25;;;-145.06;87.31
59859;BME280;45734;53.648;9.566;2023-04-22T01:19:31;96143.44;;;-145.06;87.62
59859;BME280;45734;53.648;9.566;2023-04-22T01:24:32;96182.31;;;-145.06;90.44
59859;BME280;45734;53.648;9.566;2023-04-22T01:29:35;96139.34;;;-145.06;90.67
59859;BME280;45734;53.648;9.566;2023-04-22T01:34:36;96143.44;;;-145.06;91.55
59859;BME280;45734;53.648;9.566;2023-04-22T01:39:36;96180.28;;;-145.06;94.06
59859;BME280;45734;53.648;9.566;2023-04-22T01:44:37;96217.13;;;-145.06;97.39
59859;BME280;45734;53.648;9.566;2023-04-22T01:49:37;96231.44;;;-145.06;100.00
59859;BME280;45734;53.648;9.566;2023-04-22T01:54:37;96251.91;;;-145.06;100.00
59859;BME280;45734;53.648;9.566;2023-04-22T01:59:38;96292.84;;;-145.06;100.00
59859;BME280;45734;53.648;9.566;2023-04-22T02:04:39;96264.19;;;-145.06;100.00
59859;BME280;45734;53.648;9.566;2023-04-22T02:09:39;96282.59;;;-145.06;100.00
59859;BME280;45734;53.648;9.566;2023-04-22T02:14:39;96317.41;;;-145.06;100.00
59859;BME280;45734;53.648;9.566;2023-04-22T02:19:40;96315.34;;;-145.06;100.00
59859;BME280;45734;53.648;9.566;2023-04-22T02:24:40;96284.66;;;-145.06;100.00
59859;BME280;45734;53.648;9.566;2023-04-22T02:29:42;96282.59;;;-145.06;100.00
59859;BME280;45734;53.648;9.566;2023-04-22T02:34:42;96298.97;;;-145.06;100.00
59859;BME280;45734;53.648;9.566;2023-04-22T02:39:42;96274.41;;;-145.06;100.00
59859;BME280;45734;53.648;9.566;2023-04-22T02:44:43;96280.56;;;-145.06;100.00
59859;BME280;45734;53.648;9.566;2023-04-22T02:49:43;96319.44;;;-145.06;100.00
59859;BME280;45734;53.648;9.566;2023-04-22T02:54:43;96272.38;;;-145.06;100.00
59859;BME280;45734;53.648;9.566;2023-04-22T02:59:44;96268.28;;;-145.06;100.00
59859;BME280;45734;53.648;9.566;2023-04-22T03:04:44;96317.41;;;-145.06;100.00
59859;BME280;45734;53.648;9.566;2023-04-22T03:09:44;96364.47;;;-145.06;100.00
59859;BME280;45734;53.648;9.566;2023-04-22T03:14:45;96374.72;;;-145.06;100.00
59859;BME280;45734;53.648;9.566;2023-04-22T03:19:45;96348.09;;;-145.06;100.00
59859;BME280;45734;53.648;9.566;2023-04-22T03:24:46;96321.50;;;-145.06;100.00
59859;BME280;45734;53.648;9.566;2023-04-22T03:29:46;96292.84;;;-145.06;100.00
59859;BME280;45734;53.648;9.566;2023-04-22T03:34:46;96307.16;;;-145.06;100.00
59859;BME280;45734;53.648;9.566;2023-04-22T03:39:47;96258.03;;;-145.06;100.00
59859;BME280;45734;53.648;9.566;2023-04-22T03:44:47;96260.09;;;-145.06;100.00
59859;BME280;45734;53.648;9.566;2023-04-22T03:49:47;96294.88;;;-145.06;100.00
59859;BME280;45734;53.648;9.566;2023-04-22T03:54:47;96286.69;;;-145.06;100.00
59859;BME280;45734;53.648;9.566;2023-04-22T03:59:48;96233.47;;;-145.06;100.00
59859;BME280;45734;53.648;9.566;2023-04-22T04:04:48;96235.53;;;-145.06;100.00
59859;BME280;45734;53.648;9.566;2023-04-22T04:09:48;96170.03;;;-145.06;100.00
59859;BME280;45734;53.648;9.566;2023-04-22T04:14:49;95312.56;;;-145.06;100.00
59859;BME280;45734;53.648;9.566;2023-04-22T04:19:49;94899.25;;;-145.06;100.00
59859;BME280;45734;53.648;9.566;2023-04-22T04:24:49;94698.75;;;-145.06;100.00
59859;BME280;45734;53.648;9.566;2023-04-22T04:29:49;94524.88;;;-145.06;96.96
59859;BME280;45734;53.648;9.566;2023-04-22T04:34:51;94395.97;;;-145.06;86.33
59859;BME280;45734;53.648;9.566;2023-04-22T04:39:51;94195.50;;;-145.06;75.23
59859;BME280;45734;53.648;9.566;2023-04-22T04:44:52;94087.06;;;-145.06;69.81
59859;BME280;45734;53.648;9.566;2023-04-22T04:49:53;93958.22;;;-145.06;63.81
59859;BME280;45734;53.648;9.566;2023-04-22T04:54:53;93823.19;;;-145.06;60.06
59859;BME280;45734;53.648;9.566;2023-04-22T04:59:54;93755.69;;;-145.06;56.98
59859;BME280;45734;53.648;9.566;2023-04-22T05:04:54;93655.47;;;-145.06;55.17
59859;BME280;45734;53.648;9.566;2023-04-22T05:09:54;93571.63;;;-145.06;54.88
59859;BME280;45734;53.648;9.566;2023-04-22T05:14:55;93465.25;;;-145.06;51.12
59859;BME280;45734;53.648;9.566;2023-04-22T05:19:55;93348.69;;;-145.06;48.72
59859;BME280;45734;53.648;9.566;2023-04-22T05:24:55;93322.09;;;-145.06;48.40
59859;BME280;45734;53.648;9.566;2023-04-22T05:29:56;93228.00;;;-145.06;46.14
59859;BME280;45734;53.648;9.566;2023-04-22T05:34:56;93230.06;;;-145.06;46.19
59859;BME280;45734;53.648;9.566;2023-04-22T05:39:56;93156.44;;;-145.06;46.71
59859;BME280;45734;53.648;9.566;2023-04-22T05:44:57;93015.31;;;-145.06;42.79
59859;BME280;45734;53.648;9.566;2023-04-22T05:49:57;92992.81;;;-145.06;42.94
59859;BME280;45734;53.648;9.566;2023-04-22T05:54:57;93035.78;;;-145.06;42.42
59859;BME280;45734;53.648;9.566;2023-04-22T05:59:59;93019.41;;;-145.06;42.52
59859;BME280;45734;53.648;9.566;2023-04-22T06:04:59;92984.66;;;-145.06;42.16
59859;BME280;45734;53.648;9.566;2023-04-22T06:10:00;92976.47;;;-145.06;41.76
59859;BME280;45734;53.648;9.566;2023-04-22T06:15:00;92921.25;;;-145.06;42.36
59859;BME280;45734;53.648;9.566;2023-04-22T06:20:00;92892.63;;;-145.06;42.69
59859;BME280;45734;53.648;9.566;2023-04-22T06:25:01;92864.00;;;-145.06;40.96
59859;BME280;45734;53.648;9.566;2023-04-22T06:30:01;92868.09;;;-145.06;40.79
59859;BME280;45734;53.648;9.566;2023-04-22T06:35:01;92845.59;;;-145.06;41.19
59859;BME280;45734;53.648;9.566;2023-04-22T06:40:02;92888.53;;;-145.06;40.95
59859;BME280;45734;53.648;9.566;2023-04-22T06:45:03;92806.72;;;-145.06;41.52
59859;BME280;45734;53.648;9.566;2023-04-22T06:50:05;92839.44;;;-145.06;40.90
59859;BME280;45734;53.648;9.566;2023-04-22T06:55:06;92812.88;;;-145.06;40.80
59859;BME280;45734;53.648;9.566;2023-04-22T07:00:07;92745.38;;;-145.06;40.44
59859;BME280;45734;53.648;9.566;2023-04-22T07:05:07;92700.41;;;-145.06;40.50
59859;BME280;45734;53.648;9.566;2023-04-22T07:10:08;92722.88;;;-145.06;40.11
59859;BME280;45734;53.648;9.566;2023-04-22T07:15:09;92743.34;;;-145.06;40.61
59859;BME280;45734;53.648;9.566;2023-04-22T07:20:10;92706.53;;;-145.06;40.37
59859;BME280;45734;53.648;9.566;2023-04-22T07:25:10;92696.31;;;-145.06;40.61
59859;BME280;45734;53.648;9.566;2023-04-22T07:30:11;92700.41;;;-145.06;39.99
59859;BME280;45734;53.648;9.566;2023-04-22T07:35:12;92853.78;;;-145.06;40.95
59859;BME280;45734;53.648;9.566;2023-04-22T07:40:12;92831.28;;;-145.06;41.85
59859;BME280;45734;53.648;9.566;2023-04-22T07:45:13;92810.81;;;-145.06;42.02
59859;BME280;45734;53.648;9.566;2023-04-22T07:50:13;92827.19;;;-145.06;42.23
59859;BME280;45734;53.648;9.566;2023-04-22T07:55:14;92786.28;;;-145.06;42.15
59859;BME280;45734;53.648;9.566;2023-04-22T08:00:14;92741.28;;;-145.06;41.99
59859;BME280;45734;53.648;9.566;2023-04-22T08:05:15;92851.72;;;-145.06;41.77
59859;BME280;45734;53.648;9.566;2023-04-22T08:10:15;92808.78;;;-145.06;43.36
59859;BME280;45734;53.648;9.566;2023-04-22T08:15:16;92798.56;;;-145.06;42.50
59859;BME280;45734;53.648;9.566;2023-04-22T08:20:16;92833.31;;;-145.06;41.92
59859;BME280;45734;53.648;9.566;2023-04-22T08:25:17;92839.44;;;-145.06;41.71
59859;BME280;45734;53.648;9.566;2023-04-22T08:30:17;92864.00;;;-145.06;43.39
59859;BME280;45734;53.648;9.566;2023-04-22T08:35:18;92774.00;;;-145.06;43.05
59859;BME280;45734;53.648;9.566;2023-04-22T08:40:18;92737.22;;;-145.06;42.00
59859;BME280;45734;53.648;9.566;2023-04-22T08:45:19;92800.59;;;-145.06;44.63
59859;BME280;45734;53.648;9.566;2023-04-22T08:50:20;92778.09;;;-145.06;42.57
59859;BME280;45734;53.648;9.566;2023-04-22T08:55:25;92882.41;;;-145.06;43.22
59859;BME280;45734;53.648;9.566;2023-04-22T09:00:26;92917.16;;;-145.06;42.64
59859;BME280;45734;53.648;9.566;2023-04-22T09:05:27;92868.09;;;-145.06;43.39
59859;BME280;45734;53.648;9.566;2023-04-22T09:10:29;92900.81;;;-145.06;43.70
59859;BME280;45734;53.648;9.566;2023-04-22T09:15:29;92937.63;;;-145.06;43.29
59859;BME280;45734;53.648;9.566;2023-04-22T09:20:30;92906.94;;;-145.06;43.70
59859;BME280;45734;53.648;9.566;2023-04-22T09:25:32;92908.97;;;-145.06;43.51
59859;BME280;45734;53.648;9.566;2023-04-22T09:30:34;92962.16;;;-145.06;44.77
59859;BME280;45734;53.648;9.566;2023-04-22T09:35:40;93007.16;;;-145.06;45.89
59859;BME280;45734;53.648;9.566;2023-04-22T09:40:42;92978.50;;;-145.06;45.67
59859;BME280;45734;53.648;9.566;2023-04-22T09:45:43;92976.47;;;-145.06;48.83
59859;BME280;45734;53.648;9.566;2023-04-22T09:50:49;92892.63;;;-145.06;45.53
59859;BME280;45734;53.648;9.566;2023-04-22T09:55:52;93297.56;;;-145.06;44.62
59859;BME280;45734;53.648;9.566;2023-04-22T10:00:54;92945.78;;;-145.06;43.62
59859;BME280;45734;53.648;9.566;2023-04-22T10:05:56;92986.69;;;-145.06;45.37
59859;BME280;45734;53.648;9.566;2023-04-22T10:10:56;93003.06;;;-145.06;45.67
59859;BME280;45734;53.648;9.566;2023-04-22T10:15:57;93191.19;;;-145.06;45.17
59859;BME280;45734;53.648;9.566;2023-04-22T10:20:59;92939.66;;;-145.06;44.12
59859;BME280;45734;53.648;9.566;2023-04-22T10:25:59;92937.63;;;-145.06;44.48
59859;BME280;45734;53.648;9.566;2023-04-22T10:31:05;92958.06;;;-145.06;41.45
59859;BME280;45734;53.648;9.566;2023-04-22T10:36:18;92956.03;;;-145.06;40.89
59859;BME280;45734;53.648;9.566;2023-04-22T10:41:52;92915.13;;;-145.06;42.16
59859;BME280;45734;53.648;9.566;2023-04-22T10:51:55;92917.16;;;-145.06;39.99
59859;BME280;45734;53.648;9.566;2023-04-22T10:57:14;92921.25;;;-145.06;40.92
59859;BME280;45734;53.648;9.566;2023-04-22T11:02:19;92925.34;;;-145.06;40.73
59859;BME280;45734;53.648;9.566;2023-04-22T11:17:41;93017.38;;;-145.06;42.47
59859;BME280;45734;53.648;9.566;2023-04-22T11:22:45;92970.34;;;-145.06;43.16
59859;BME280;45734;53.648;9.566;2023-04-22T11:27:46;92974.41;;;-145.06;40.95
59859;BME280;45734;53.648;9.566;2023-04-22T11:32:49;92968.28;;;-145.06;44.04
59859;BME280;45734;53.648;9.566;2023-04-22T11:37:51;92929.44;;;-145.06;39.93
59859;BME280;45734;53.648;9.566;2023-04-22T11:42:51;93099.16;;;-145.06;39.75
59859;BME280;45734;53.648;9.566;2023-04-22T11:47:53;92900.81;;;-145.06;39.16
59859;BME280;45734;53.648;9.566;2023-04-22T11:53:02;93279.16;;;-145.06;41.07
59859;BME280;45734;53.648;9.566;2023-04-22T11:58:07;93277.09;;;-145.06;40.35
59859;BME280;45734;53.648;9.566;2023-04-22T12:03:13;93199.38;;;-145.06;41.94
59859;BME280;45734;53.648;9.566;2023-04-22T12:08:16;93097.13;;;-145.06;41.55
59859;BME280;45734;53.648;9.566;2023-04-22T12:13:27;93097.13;;;-145.06;42.98
59859;BME280;45734;53.648;9.566;2023-04-22T12:18:34;92802.63;;;-145.06;40.62
59859;BME280;45734;53.648;9.566;2023-04-22T12:23:46;92798.56;;;-145.06;41.08
59859;BME280;45734;53.648;9.566;2023-04-22T12:28:47;93352.78;;;-145.06;41.03
59859;BME280;45734;53.648;9.566;2023-04-22T12:33:48;92906.94;;;-145.06;42.07
59859;BME280;45734;53.648;9.566;2023-04-22T12:38:49;93131.91;;;-145.06;40.58
59859;BME280;45734;53.648;9.566;2023-04-22T12:43:50;93123.72;;;-145.06;41.22
59859;BME280;45734;53.648;9.566;2023-04-22T12:48:51;92847.63;;;-145.06;40.58
59859;BME280;45734;53.648;9.566;2023-04-22T12:53:51;92747.44;;;-145.06;41.47
59859;BME280;45734;53.648;9.566;2023-04-22T12:58:52;92667.69;;;-145.06;39.34
59859;BME280;45734;53.648;9.566;2023-04-22T13:03:52;92637.00;;;-145.06;40.13
59859;BME280;45734;53.648;9.566;2023-04-22T13:08:52;92589.97;;;-145.06;38.21
59859;BME280;45734;53.648;9.566;2023-04-22T13:13:53;92596.09;;;-145.06;37.63
59859;BME280;45734;53.648;9.566;2023-04-22T13:18:53;92612.47;;;-145.06;38.54
59859;BME280;45734;53.648;9.566;2023-04-22T13:23:53;92657.44;;;-145.06;39.58
59859;BME280;45734;53.648;9.566;2023-04-22T13:28:54;92583.84;;;-145.06;38.72
59859;BME280;45734;53.648;9.566;2023-04-22T13:33:54;92637.00;;;-145.06;39.87
59859;BME280;45734;53.648;9.566;2023-04-22T13:38:56;92600.19;;;-145.06;38.10
59859;BME280;45734;53.648;9.566;2023-04-22T13:43:56;92686.09;;;-145.06;38.45
59859;BME280;45734;53.648;9.566;2023-04-22T13:48:58;92702.44;;;-145.06;39.26
59859;BME280;45734;53.648;9.566;2023-04-22T13:53:59;92794.47;;;-145.06;39.85
59859;BME280;45734;53.648;9.566;2023-04-22T13:59:00;92753.56;;;-145.06;40.75
59859;BME280;45734;53.648;9.566;2023-04-22T14:04:00;92649.28;;;-145.06;39.75
59859;BME280;45734;53.648;9.566;2023-04-22T14:09:01;92585.88;;;-145.06;38.35
59859;BME280;45734;53.648;9.566;2023-04-22T14:14:03;92741.28;;;-145.06;40.26
59859;BME280;45734;53.648;9.566;2023-04-22T14:19:03;92557.25;;;-145.06;39.15
59859;BME280;45734;53.648;9.566;2023-04-22T14:24:05;92620.66;;;-145.06;36.88
59859;BME280;45734;53.648;9.566;2023-04-22T14:29:05;92827.19;;;-145.06;37.93
59859;BME280;45734;53.648;9.566;2023-04-22T14:34:06;92778.09;;;-145.06;40.43
59859;BME280;45734;53.648;9.566;2023-04-22T14:39:06;92919.22;;;-145.06;38.69
59859;BME280;45734;53.648;9.566;2023-04-22T14:44:06;93003.06;;;-145.06;39.69
59859;BME280;45734;53.648;9.566;2023-04-22T14:49:07;92980.56;;;-145.06;41.24
59859;BME280;45734;53.648;9.566;2023-04-22T14:54:07;92939.66;;;-145.06;41.71
59859;BME280;45734;53.648;9.566;2023-04-22T14:59:07;92778.09;;;-145.06;41.46
59859;BME280;45734;53.648;9.566;2023-04-22T15:04:08;92647.22;;;-145.06;39.94
59859;BME280;45734;53.648;9.566;2023-04-22T15:09:11;92671.78;;;-145.06;43.88
59859;BME280;45734;53.648;9.566;2023-04-22T15:14:12;92573.63;;;-145.06;39.36
59859;BME280;45734;53.648;9.566;2023-04-22T15:19:12;92585.88;;;-145.06;38.76
59859;BME280;45734;53.648;9.566;2023-04-22T15:24:16;92639.06;;;-145.06;39.08
59859;BME280;45734;53.648;9.566;2023-04-22T15:29:16;92800.59;;;-145.06;37.74
59859;BME280;45734;53.648;9.566;2023-04-22T15:34:17;92978.50;;;-145.06;38.51
59859;BME280;45734;53.648;9.566;2023-04-22T15:39:17;93219.84;;;-145.06;39.97
59859;BME280;45734;53.648;9.566;2023-04-22T15:44:18;93328.22;;;-145.06;40.52
59859;BME280;45734;53.648;9.566;2023-04-22T15:49:18;93395.72;;;-145.06;41.39
59859;BME280;45734;53.648;9.566;2023-04-22T15:54:19;93444.81;;;-145.06;41.87
59859;BME280;45734;53.648;9.566;2023-04-22T15:59:19;92890.56;;;-145.06;42.97
59859;BME280;45734;53.648;9.566;2023-04-22T16:04:20;93232.09;;;-145.06;43.28
59859;BME280;45734;53.648;9.566;2023-04-22T16:09:20;93268.91;;;-145.06;43.76
59859;BME280;45734;53.648;9.566;2023-04-22T16:14:20;93330.28;;;-145.06;44.20
59859;BME280;45734;53.648;9.566;2023-04-22T16:19:21;93610.47;;;-145.06;43.96
59859;BME280;45734;53.648;9.566;2023-04-22T16:24:21;93729.13;;;-145.06;42.59
59859;BME280;45734;53.648;9.566;2023-04-22T16:29:21;93804.78;;;-145.06;44.09
59859;BME280;45734;53.648;9.566;2023-04-22T16:34:22;93825.25;;;-145.06;44.89
59859;BME280;45734;53.648;9.566;2023-04-22T16:39:22;93788.44;;;-145.06;44.93
59859;BME280;45734;53.648;9.566;2023-04-22T16:44:22;93862.06;;;-145.06;45.34
59859;BME280;45734;53.648;9.566;2023-04-22T16:49:23;93890.72;;;-145.06;45.52
59859;BME280;45734;53.648;9.566;2023-04-22T16:54:23;93857.97;;;-145.06;46.13
59859;BME280;45734;53.648;9.566;2023-04-22T16:59:24;93874.34;;;-145.06;45.73
59859;BME280;45734;53.648;9.566;2023-04-22T17:04:24;93886.63;;;-145.06;46.43
59859;BME280;45734;53.648;9.566;2023-04-22T17:09:25;93941.84;;;-145.06;46.92
59859;BME280;45734;53.648;9.566;2023-04-22T17:14:25;93898.88;;;-145.06;46.12
59859;BME280;45734;53.648;9.566;2023-04-22T17:19:25;93935.69;;;-145.06;45.92
59859;BME280;45734;53.648;9.566;2023-04-22T17:24:26;94005.25;;;-145.06;46.63
59859;BME280;45734;53.648;9.566;2023-04-22T17:29:27;94025.72;;;-145.06;47.57
59859;BME280;45734;53.648;9.566;2023-04-22T17:34:27;94074.81;;;-145.06;48.93
59859;BME280;45734;53.648;9.566;2023-04-22T17:39:28;94093.22;;;-145.06;48.45
59859;BME280;45734;53.648;9.566;2023-04-22T17:44:28;94123.91;;;-145.06;49.34
59859;BME280;45734;53.648;9.566;2023-04-22T17:49:28;94136.16;;;-145.06;49.43
59859;BME280;45734;53.648;9.566;2023-04-22T17:54:29;94203.69;;;-145.06;50.27
59859;BME280;45734;53.648;9.566;2023-04-22T17:59:29;94199.59;;;-145.06;50.71
59859;BME280;45734;53.648;9.566;2023-04-22T18:04:29;94209.81;;;-145.06;51.15
59859;BME280;45734;53.648;9.566;2023-04-22T18:09:30;94136.16;;;-145.06;49.23
59859;BME280;45734;53.648;9.566;2023-04-22T18:14:31;94183.22;;;-145.06;49.08
59859;BME280;45734;53.648;9.566;2023-04-22T18:19:31;94189.34;;;-145.06;49.41
59859;BME280;45734;53.648;9.566;2023-04-22T18:24:31;94201.63;;;-145.06;50.49
59859;BME280;45734;53.648;9.566;2023-04-22T18:29:32;94226.19;;;-145.06;50.46
59859;BME280;45734;53.648;9.566;2023-04-22T18:34:32;94224.13;;;-145.06;49.84
59859;BME280;45734;53.648;9.566;2023-04-22T18:39:32;94244.59;;;-145.06;50.90
59859;BME280;45734;53.648;9.566;2023-04-22T18:44:33;94318.25;;;-145.06;53.80
59859;BME280;45734;53.648;9.566;2023-04-22T18:49:34;94340.75;;;-145.06;53.56
59859;BME280;45734;53.648;9.566;2023-04-22T18:54:34;94355.06;;;-145.06;53.73
59859;BME280;45734;53.648;9.566;2023-04-22T18:59:35;94359.16;;;-145.06;53.60
59859;BME280;45734;53.648;9.566;2023-04-22T19:04:35;94342.78;;;-145.06;53.65
59859;BME280;45734;53.648;9.566;2023-04-22T19:09:36;94336.66;;;-145.06;55.59
59859;BME280;45734;53.648;9.566;2023-04-22T19:14:36;94389.84;;;-145.06;57.09
59859;BME280;45734;53.648;9.566;2023-04-22T19:19:36;94451.22;;;-145.06;59.59
59859;BME280;45734;53.648;9.566;2023-04-22T19:24:37;94514.63;;;-145.06;67.60
59859;BME280;45734;53.648;9.566;2023-04-22T19:29:39;94600.56;;;-145.06;71.85
59859;BME280;45734;53.648;9.566;2023-04-22T19:34:40;94680.34;;;-145.06;75.05
59859;BME280;45734;53.648;9.566;2023-04-22T19:39:42;94676.25;;;-145.06;77.75
59859;BME280;45734;53.648;9.566;2023-04-22T19:44:42;94731.50;;;-145.06;83.22
59859;BME280;45734;53.648;9.566;2023-04-22T19:49:45;94762.19;;;-145.06;86.47
59859;BME280;45734;53.648;9.566;2023-04-22T19:54:47;94819.47;;;-145.06;89.13
59859;BME280;45734;53.648;9.566;2023-04-22T19:59:49;94850.16;;;-145.06;91.57
59859;BME280;45734;53.648;9.566;2023-04-22T20:04:49;94901.31;;;-145.06;96.88
59859;BME280;45734;53.648;9.566;2023-04-22T20:09:51;94913.59;;;-145.06;100.00
59859;BME280;45734;53.648;9.566;2023-04-22T20:14:52;94942.22;;;-145.06;100.00
59859;BME280;45734;53.648;9.566;2023-04-22T20:19:53;95022.03;;;-145.06;100.00
59859;BME280;45734;53.648;9.566;2023-04-22T20:25:02;94993.38;;;-145.06;100.00
59859;BME280;45734;53.648;9.566;2023-04-22T20:30:04;95001.56;;;-145.06;100.00
59859;BME280;45734;53.648;9.566;2023-04-22T20:35:05;95005.66;;;-145.06;100.00
59859;BME280;45734;53.648;9.566;2023-04-22T20:40:06;95079.31;;;-145.06;100.00
59859;BME280;45734;53.648;9.566;2023-04-22T20:45:10;95112.06;;;-145.06;100.00
59859;BME280;45734;53.648;9.566;2023-04-22T20:50:14;95116.16;;;-145.06;100.00
59859;BME280;45734;53.648;9.566;2023-04-22T20:55:15;95120.25;;;-145.06;100.00
59859;BME280;45734;53.648;9.566;2023-04-22T21:00:16;95152.97;;;-145.06;100.00
59859;BME280;45734;53.648;9.566;2023-04-22T21:05:16;95173.44;;;-145.06;100.00
59859;BME280;45734;53.648;9.566;2023-04-22T21:10:18;95202.09;;;-145.06;100.00
59859;BME280;45734;53.648;9.566;2023-04-22T21:15:19;95200.03;;;-145.06;100.00
59859;BME280;45734;53.648;9.566;2023-04-22T21:20:21;95230.72;;;-145.06;100.00
59859;BME280;45734;53.648;9.566;2023-04-22T21:25:23;95240.97;;;-145.06;100.00
59859;BME280;45734;53.648;9.566;2023-04-22T21:30:23;95290.06;;;-145.06;100.00
59859;BME280;45734;53.648;9.566;2023-04-22T21:35:24;95263.47;;;-145.06;100.00
59859;BME280;45734;53.648;9.566;2023-04-22T21:40:25;95300.31;;;-145.06;100.00
59859;BME280;45734;53.648;9.566;2023-04-22T21:45:26;95322.81;;;-145.06;100.00
59859;BME280;45734;53.648;9.566;2023-04-22T21:50:26;95331.00;;;-145.06;100.00
59859;BME280;45734;53.648;9.566;2023-04-22T21:55:29;95306.44;;;-145.06;100.00
59859;BME280;45734;53.648;9.566;2023-04-22T22:00:29;95322.81;;;-145.06;100.00
59859;BME280;45734;53.648;9.566;2023-04-22T22:05:30;95398.53;;;-145.06;100.00
59859;BME280;45734;53.648;9.566;2023-04-22T22:10:31;95331.00;;;-145.06;100.00
59859;BME280;45734;53.648;9.566;2023-04-22T22:15:31;95349.41;;;-145.06;100.00
59859;BME280;45734;53.648;9.566;2023-04-22T22:20:32;95369.88;;;-145.06;100.00
59859;BME280;45734;53.648;9.566;2023-04-22T22:25:32;95398.53;;;-145.06;100.00
59859;BME280;45734;53.648;9.566;2023-04-22T22:30:32;95367.81;;;-145.06;100.00
59859;BME280;45734;53.648;9.566;2023-04-22T22:35:33;95376.00;;;-145.06;100.00
59859;BME280;45734;53.648;9.566;2023-04-22T22:40:33;95384.19;;;-145.06;100.00
59859;BME280;45734;53.648;9.566;2023-04-22T22:45:33;95421.03;;;-145.06;100.00
59859;BME280;45734;53.648;9.566;2023-04-22T22:50:34;95382.16;;;-145.06;100.00
59859;BME280;45734;53.648;9.566;2023-04-22T22:55:34;95437.41;;;-145.06;100.00
59859;BME280;45734;53.648;9.566;2023-04-22T23:00:35;95398.53;;;-145.06;100.00
59859;BME280;45734;53.648;9.566;2023-04-22T23:05:35;95429.22;;;-145.06;100.00
59859;BME280;45734;53.648;9.566;2023-04-22T23:10:36;95406.72;;;-145.06;100.00
59859;BME280;45734;53.648;9.566;2023-04-22T23:15:36;95396.47;;;-145.06;100.00
59859;BME280;45734;53.648;9.566;2023-04-22T23:20:37;95429.22;;;-145.06;100.00
59859;BME280;45734;53.648;9.566;2023-04-22T23:25:38;95461.97;;;-145.06;100.00
59859;BME280;45734;53.648;9.566;2023-04-22T23:30:38;95437.41;;;-145.06;100.00
59859;BME280;45734;53.648;9.566;2023-04-22T23:35:40;95466.06;;;-145.06;100.00
59859;BME280;45734;53.648;9.566;2023-04-22T23:40:40;95498.78;;;-145.06;100.00
59859;BME280;45734;53.648;9.566;2023-04-22T23:45:41;95541.75;;;-145.06;100.00
59859;BME280;45734;53.648;9.566;2023-04-22T23:50:43;95527.44;;;-145.06;100.00
59859;BME280;45734;53.648;9.566;2023-04-22T23:55:43;95523.34;;;-145.06;100.00
